Time;durP1;ratioP1;P1;durP2;ratioP2;P2;SDS_P1;SDS_P2;PMS_P1;PMS_P2;Temp;Humidity;BMP_temperature;BMP_pressure;BME280_temperature;BME280_humidity;BME280_pressure;Samples;Min_cycle;Max_cycle;Signal;HPM_P1;HPM_P2
2023/06/27 00:01:40;;;;;;;9.02;3.13;;;15.10;99.90;;;;;;4956645;28;20042;-50
2023/06/27 00:04:09;;;;;;;6.15;3.55;;;15.10;99.90;;;;;;4959166;28;20122;-46
2023/06/27 00:06:41;;;;;;;9.32;3.40;;;15.10;99.90;;;;;;4944988;28;20034;-49
2023/06/27 00:09:11;;;;;;;5.40;3.03;;;15.10;99.90;;;;;;4956188;28;20047;-49
2023/06/27 00:11:40;;;;;;;11.15;3.80;;;15.00;99.90;;;;;;4952964;28;20445;-48
2023/06/27 00:14:09;;;;;;;6.82;3.60;;;15.00;99.90;;;;;;4958143;28;20047;-48
2023/06/27 00:16:36;;;;;;;5.80;3.58;;;15.00;99.90;;;;;;4955463;28;20054;-48
2023/06/27 00:19:03;;;;;;;3.70;3.22;;;15.00;99.90;;;;;;4955542;28;20050;-47
2023/06/27 00:21:33;;;;;;;12.48;3.65;;;14.90;99.90;;;;;;4956359;28;20439;-52
2023/06/27 00:24:00;;;;;;;7.13;3.25;;;14.90;99.90;;;;;;4944442;28;20411;-50
2023/06/27 00:26:27;;;;;;;8.57;4.13;;;14.90;99.90;;;;;;4954487;28;20055;-48
2023/06/27 00:28:54;;;;;;;6.30;3.25;;;14.90;99.90;;;;;;4959160;28;20133;-49
2023/06/27 00:31:19;;;;;;;8.18;3.70;;;14.80;99.90;;;;;;4955023;28;20059;-47
2023/06/27 00:33:46;;;;;;;6.88;3.70;;;14.90;99.90;;;;;;4959340;28;20059;-50
2023/06/27 00:36:12;;;;;;;5.95;3.80;;;14.80;99.90;;;;;;4957794;28;20065;-49
2023/06/27 00:38:38;;;;;;;8.27;3.58;;;14.80;99.90;;;;;;4938493;28;20070;-46
2023/06/27 00:41:03;;;;;;;9.77;4.00;;;14.80;99.90;;;;;;4957428;28;20151;-46
2023/06/27 00:43:29;;;;;;;6.47;3.47;;;14.70;99.90;;;;;;4957114;28;20118;-47
2023/06/27 00:45:56;;;;;;;8.38;3.53;;;14.70;99.90;;;;;;4959256;28;20610;-47
2023/06/27 00:48:22;;;;;;;8.68;3.90;;;14.70;99.90;;;;;;4955001;28;20098;-49
2023/06/27 00:50:51;;;;;;;8.10;3.75;;;14.70;99.90;;;;;;4956690;28;20047;-47
2023/06/27 00:53:17;;;;;;;6.22;3.80;;;14.70;99.90;;;;;;4941232;28;20035;-47
2023/06/27 00:55:43;;;;;;;8.90;4.45;;;14.70;99.90;;;;;;4951701;28;20085;-46
2023/06/27 00:58:10;;;;;;;7.10;4.18;;;14.70;99.90;;;;;;4954362;28;20137;-51
2023/06/27 01:00:36;;;;;;;7.85;4.00;;;14.60;99.90;;;;;;4958126;28;20062;-50
2023/06/27 01:03:05;;;;;;;8.63;4.03;;;14.60;99.90;;;;;;4953183;28;20126;-50
2023/06/27 01:05:32;;;;;;;6.20;3.50;;;14.60;99.90;;;;;;4950395;28;20046;-51
2023/06/27 01:08:08;;;;;;;12.05;4.30;;;14.60;99.90;;;;;;4940647;28;20113;-47
2023/06/27 01:10:36;;;;;;;7.68;4.47;;;14.60;99.90;;;;;;4952513;28;20046;-48
2023/06/27 01:13:18;;;;;;;9.25;4.15;;;14.60;99.90;;;;;;4949996;28;20038;-47
2023/06/27 01:15:44;;;;;;;5.30;3.47;;;14.60;99.90;;;;;;4954431;28;20047;-50
2023/06/27 01:18:12;;;;;;;8.18;3.95;;;14.60;99.90;;;;;;4955279;28;20054;-49
2023/06/27 01:20:39;;;;;;;6.20;4.10;;;14.50;99.90;;;;;;4954298;28;20042;-49
2023/06/27 01:23:17;;;;;;;6.97;4.22;;;14.50;99.90;;;;;;4957082;28;20046;-51
2023/06/27 01:25:43;;;;;;;7.60;3.83;;;14.50;99.90;;;;;;4953652;28;20546;-47
2023/06/27 01:28:14;;;;;;;9.27;4.18;;;14.50;99.90;;;;;;4950843;28;20040;-50
2023/06/27 01:30:41;;;;;;;8.93;4.13;;;14.50;99.90;;;;;;4951432;28;20043;-52
2023/06/27 01:33:53;;;;;;;6.55;3.78;;;14.50;99.90;;;;;;4939436;28;20062;-50
2023/06/27 01:36:24;;;;;;;8.93;4.18;;;14.50;99.90;;;;;;4947792;28;20039;-49
2023/06/27 01:38:55;;;;;;;10.47;4.23;;;14.40;99.90;;;;;;4953363;28;20077;-49
2023/06/27 01:41:26;;;;;;;9.95;4.80;;;14.40;99.90;;;;;;4941330;28;20039;-48
2023/06/27 01:43:54;;;;;;;9.02;4.00;;;14.40;99.90;;;;;;4954704;28;20046;-48
2023/06/27 01:46:21;;;;;;;7.03;4.07;;;14.40;99.90;;;;;;4951564;28;20043;-50
2023/06/27 01:48:50;;;;;;;7.13;3.97;;;14.40;99.90;;;;;;4955094;28;20043;-47
2023/06/27 01:51:15;;;;;;;7.97;4.40;;;14.40;99.90;;;;;;4953677;28;20085;-49
2023/06/27 01:53:41;;;;;;;9.70;4.47;;;14.40;99.90;;;;;;4952939;28;20482;-49
2023/06/27 01:56:09;;;;;;;7.68;3.95;;;14.30;99.90;;;;;;4953320;28;20117;-49
2023/06/27 01:58:35;;;;;;;7.32;3.90;;;14.30;99.90;;;;;;4955391;28;20895;-48
2023/06/27 02:01:00;;;;;;;5.70;4.00;;;14.30;99.90;;;;;;4956825;28;20058;-52
2023/06/27 02:03:26;;;;;;;9.50;3.88;;;14.30;99.90;;;;;;4958655;28;20056;-51
2023/06/27 02:05:52;;;;;;;6.53;4.00;;;14.30;99.90;;;;;;4957602;28;20097;-53
2023/06/27 02:08:18;;;;;;;7.57;3.92;;;14.30;99.90;;;;;;4965450;28;20041;-53
2023/06/27 02:10:43;;;;;;;8.20;3.95;;;14.30;99.90;;;;;;4964612;28;20443;-54
2023/06/27 02:13:09;;;;;;;6.28;3.90;;;14.30;99.90;;;;;;4962643;28;20039;-54
2023/06/27 02:15:35;;;;;;;6.35;3.55;;;14.20;99.90;;;;;;4948687;28;20055;-54
2023/06/27 02:18:03;;;;;;;5.38;3.58;;;14.20;99.90;;;;;;4964664;28;20173;-53
2023/06/27 02:20:28;;;;;;;7.38;3.47;;;14.20;99.90;;;;;;4964449;28;20053;-50
2023/06/27 02:22:54;;;;;;;6.68;3.65;;;14.20;99.90;;;;;;4937709;28;20400;-54
2023/06/27 02:25:20;;;;;;;10.48;4.05;;;14.20;99.90;;;;;;4948509;28;20042;-53
2023/06/27 02:27:46;;;;;;;6.75;4.00;;;14.20;99.90;;;;;;4963951;28;20047;-51
2023/06/27 02:30:11;;;;;;;6.90;4.30;;;14.20;99.90;;;;;;4965341;28;20043;-55
2023/06/27 02:32:37;;;;;;;6.43;3.90;;;14.10;99.90;;;;;;4962944;28;20121;-53
2023/06/27 02:35:03;;;;;;;9.18;4.30;;;14.10;99.90;;;;;;4961756;28;20079;-54
2023/06/27 02:37:29;;;;;;;5.88;3.70;;;14.10;99.90;;;;;;4943593;28;20066;-53
2023/06/27 02:39:56;;;;;;;6.18;3.83;;;14.10;99.90;;;;;;4967308;28;20036;-54
2023/06/27 02:42:22;;;;;;;8.15;3.78;;;14.00;99.90;;;;;;4966051;28;20089;-50
2023/06/27 02:44:48;;;;;;;9.77;4.53;;;14.00;99.90;;;;;;4966850;28;20046;-52
2023/06/27 02:47:19;;;;;;;6.35;3.90;;;14.00;99.90;;;;;;4952827;28;20053;-53
2023/06/27 02:49:45;;;;;;;8.20;4.40;;;14.00;99.90;;;;;;4964033;28;20066;-52
2023/06/27 02:52:11;;;;;;;6.85;3.90;;;14.00;99.90;;;;;;4966450;28;20031;-49
2023/06/27 02:54:36;;;;;;;8.35;4.20;;;14.00;99.90;;;;;;4963841;28;20058;-53
2023/06/27 02:57:02;;;;;;;10.70;4.07;;;14.00;99.90;;;;;;4959070;28;20042;-52
2023/06/27 02:59:28;;;;;;;7.80;4.00;;;14.00;99.90;;;;;;4963693;28;20046;-54
2023/06/27 03:01:54;;;;;;;5.53;3.88;;;13.90;99.90;;;;;;4965548;28;20043;-52
2023/06/27 03:04:21;;;;;;;7.03;3.60;;;13.90;99.90;;;;;;4964422;28;20054;-52
2023/06/27 03:06:47;;;;;;;8.30;4.35;;;13.90;99.90;;;;;;4969774;28;20035;-54
2023/06/27 03:09:13;;;;;;;5.32;3.97;;;13.90;99.90;;;;;;4962969;28;20082;-54
2023/06/27 03:11:39;;;;;;;6.20;3.88;;;13.90;99.90;;;;;;4963659;28;20042;-53
2023/06/27 03:14:05;;;;;;;10.63;4.20;;;13.90;99.90;;;;;;4944070;28;20360;-54
2023/06/27 03:16:30;;;;;;;6.68;4.25;;;13.90;99.90;;;;;;4958917;28;20051;-53
2023/06/27 03:18:56;;;;;;;6.63;4.10;;;13.80;99.90;;;;;;4958847;28;20046;-55
2023/06/27 03:21:22;;;;;;;8.40;4.35;;;13.90;99.90;;;;;;4960640;28;20486;-54
2023/06/27 03:23:47;;;;;;;8.48;4.38;;;13.80;99.90;;;;;;4962130;28;20046;-54
2023/06/27 03:26:13;;;;;;;5.82;4.57;;;13.90;99.90;;;;;;4958673;28;20110;-53
2023/06/27 03:28:40;;;;;;;9.82;4.10;;;13.80;99.90;;;;;;4930026;28;20039;-53
2023/06/27 03:31:06;;;;;;;7.38;4.18;;;13.80;99.90;;;;;;4962497;28;20142;-52
2023/06/27 03:33:32;;;;;;;4.72;3.65;;;13.80;99.90;;;;;;4959319;28;20488;-53
2023/06/27 03:35:58;;;;;;;6.47;4.32;;;13.80;99.90;;;;;;4962878;28;20035;-54
2023/06/27 03:38:23;;;;;;;8.35;4.07;;;13.80;99.90;;;;;;4962726;28;20039;-54
2023/06/27 03:40:49;;;;;;;7.25;4.10;;;13.80;99.90;;;;;;4966861;28;20043;-51
2023/06/27 03:43:15;;;;;;;6.25;4.25;;;13.80;99.90;;;;;;4966164;28;20055;-54
2023/06/27 03:45:41;;;;;;;8.82;3.85;;;13.80;99.90;;;;;;4967545;28;20153;-54
2023/06/27 03:48:07;;;;;;;6.65;3.85;;;13.80;99.90;;;;;;4961239;28;20042;-53
2023/06/27 03:50:34;;;;;;;7.45;4.10;;;13.80;99.90;;;;;;4967191;28;20038;-50
2023/06/27 03:53:03;;;;;;;8.10;3.80;;;13.80;99.90;;;;;;4969711;28;20385;-51
2023/06/27 03:55:28;;;;;;;8.32;3.95;;;13.80;99.90;;;;;;4965001;28;20050;-53
2023/06/27 03:57:54;;;;;;;10.18;3.80;;;13.80;99.90;;;;;;4950724;28;20118;-52
2023/06/27 04:00:21;;;;;;;8.98;4.07;;;13.90;99.90;;;;;;4961473;28;20043;-51
2023/06/27 04:02:46;;;;;;;8.00;3.78;;;13.90;99.90;;;;;;4945052;28;20168;-53
2023/06/27 04:05:12;;;;;;;8.05;3.30;;;13.90;99.90;;;;;;4961172;28;20130;-53
2023/06/27 04:07:40;;;;;;;8.30;4.07;;;14.00;99.90;;;;;;4963727;28;20047;-53
2023/06/27 04:10:06;;;;;;;7.60;4.15;;;14.00;99.90;;;;;;4967569;28;20042;-52
2023/06/27 04:12:32;;;;;;;7.75;4.15;;;14.00;99.90;;;;;;4961809;28;20036;-52
2023/06/27 04:14:58;;;;;;;9.85;3.88;;;14.10;99.90;;;;;;4961226;28;20132;-52
2023/06/27 04:17:23;;;;;;;13.50;3.95;;;14.10;99.90;;;;;;4960490;28;20140;-54
2023/06/27 04:19:49;;;;;;;7.90;4.03;;;14.10;99.90;;;;;;4963661;28;20043;-54
2023/06/27 04:22:15;;;;;;;8.18;3.50;;;14.10;99.90;;;;;;4968567;28;20085;-53
2023/06/27 04:24:40;;;;;;;7.72;3.55;;;14.20;99.90;;;;;;4968042;28;20045;-53
2023/06/27 04:27:10;;;;;;;12.55;3.72;;;14.20;99.90;;;;;;4950163;28;20041;-53
2023/06/27 04:29:36;;;;;;;11.93;4.30;;;14.30;99.90;;;;;;4968488;28;20082;-54
2023/06/27 04:32:02;;;;;;;5.13;3.38;;;14.30;99.90;;;;;;4968996;28;20063;-54
2023/06/27 04:34:28;;;;;;;14.80;4.05;;;14.30;99.90;;;;;;4967451;28;20502;-51
2023/06/27 04:36:54;;;;;;;8.23;3.67;;;14.40;99.90;;;;;;4966721;28;20030;-53
2023/06/27 04:39:20;;;;;;;11.98;3.63;;;14.40;99.90;;;;;;4953020;28;20070;-53
2023/06/27 04:41:46;;;;;;;9.57;3.70;;;14.40;99.90;;;;;;4966764;28;20070;-54
2023/06/27 04:44:12;;;;;;;6.97;3.63;;;14.40;99.90;;;;;;4942777;28;20039;-54
2023/06/27 04:46:37;;;;;;;8.45;3.72;;;14.50;99.90;;;;;;4964672;28;20053;-50
2023/06/27 04:49:03;;;;;;;4.78;3.38;;;14.60;99.90;;;;;;4949950;28;20042;-54
2023/06/27 04:51:30;;;;;;;5.70;3.58;;;14.60;99.90;;;;;;4957351;28;20452;-54
2023/06/27 04:53:56;;;;;;;8.15;3.53;;;14.70;99.90;;;;;;4965112;28;20046;-54
2023/06/27 04:56:26;;;;;;;7.25;3.58;;;14.70;99.90;;;;;;4959695;28;20380;-52
2023/06/27 04:58:52;;;;;;;6.97;3.55;;;14.70;99.90;;;;;;4958832;28;20043;-53
2023/06/27 05:01:17;;;;;;;9.35;3.45;;;14.80;99.90;;;;;;4960911;28;20665;-52
2023/06/27 05:03:43;;;;;;;8.73;3.72;;;14.80;99.90;;;;;;4963849;28;20070;-53
2023/06/27 05:06:09;;;;;;;7.28;3.60;;;14.90;99.90;;;;;;4957381;28;20126;-49
2023/06/27 05:08:36;;;;;;;7.82;3.42;;;14.90;99.90;;;;;;4956473;28;22301;-54
2023/06/27 05:11:02;;;;;;;7.53;3.60;;;15.00;99.90;;;;;;4958040;28;20511;-53
2023/06/27 05:13:27;;;;;;;6.35;3.20;;;15.00;99.90;;;;;;4956141;28;20035;-53
2023/06/27 05:15:53;;;;;;;7.63;3.70;;;15.10;99.90;;;;;;4956730;28;20052;-53
2023/06/27 05:18:19;;;;;;;10.02;3.38;;;15.20;99.90;;;;;;4954069;28;20047;-53
2023/06/27 05:20:47;;;;;;;7.05;2.95;;;15.20;99.90;;;;;;4941018;28;20074;-50
2023/06/27 05:23:13;;;;;;;5.45;3.08;;;15.30;99.90;;;;;;4958548;28;20054;-54
2023/06/27 05:25:39;;;;;;;4.43;2.83;;;15.40;99.90;;;;;;4941829;28;20103;-53
2023/06/27 05:28:04;;;;;;;7.10;3.20;;;15.40;99.90;;;;;;4957127;28;20046;-54
2023/06/27 05:30:30;;;;;;;12.10;3.70;;;15.60;99.90;;;;;;4955061;28;20067;-53
2023/06/27 05:33:01;;;;;;;6.15;3.28;;;15.60;99.90;;;;;;4960176;28;20043;-53
2023/06/27 05:35:27;;;;;;;8.60;3.17;;;15.70;99.90;;;;;;4959590;28;20120;-53
2023/06/27 05:37:54;;;;;;;8.82;3.25;;;15.70;99.90;;;;;;4952944;28;20051;-53
2023/06/27 05:40:19;;;;;;;5.97;3.28;;;15.90;99.90;;;;;;4956087;28;20133;-52
2023/06/27 05:42:45;;;;;;;8.00;3.28;;;15.90;99.90;;;;;;4957048;28;20403;-53
2023/06/27 05:45:11;;;;;;;9.13;3.22;;;15.90;99.90;;;;;;4955881;28;20051;-54
2023/06/27 05:47:37;;;;;;;7.57;2.85;;;16.00;99.90;;;;;;4959233;28;20077;-53
2023/06/27 05:50:02;;;;;;;6.57;3.15;;;16.10;99.90;;;;;;4962437;28;20547;-52
2023/06/27 05:52:31;;;;;;;6.68;3.05;;;16.10;99.90;;;;;;4967858;28;20554;-53
2023/06/27 05:54:58;;;;;;;10.25;3.00;;;16.20;99.90;;;;;;4945614;28;20054;-55
2023/06/27 05:57:24;;;;;;;10.40;2.88;;;16.30;99.90;;;;;;4965794;28;20142;-52
2023/06/27 05:59:50;;;;;;;5.30;2.65;;;16.40;99.90;;;;;;4951702;28;20126;-53
2023/06/27 06:02:16;;;;;;;7.00;2.63;;;16.50;99.90;;;;;;4946564;28;20078;-52
2023/06/27 06:04:42;;;;;;;7.53;2.78;;;16.60;99.90;;;;;;4958099;28;20078;-53
2023/06/27 06:07:07;;;;;;;6.53;2.95;;;16.70;99.90;;;;;;4965319;28;20057;-53
2023/06/27 06:09:33;;;;;;;9.68;2.45;;;16.80;99.90;;;;;;4960566;28;20162;-57
2023/06/27 06:11:59;;;;;;;5.63;2.33;;;16.90;99.90;;;;;;4957347;28;20697;-52
2023/06/27 06:14:25;;;;;;;7.75;2.00;;;17.00;99.90;;;;;;4958776;28;20097;-56
2023/06/27 06:16:51;;;;;;;8.45;2.40;;;17.10;99.90;;;;;;4961833;28;20050;-56
2023/06/27 06:19:17;;;;;;;8.93;2.20;;;17.10;99.90;;;;;;4943562;28;20444;-56
2023/06/27 06:21:43;;;;;;;8.90;2.17;;;17.20;99.90;;;;;;4963941;28;20046;-56
2023/06/27 06:24:09;;;;;;;6.10;2.10;;;17.40;99.90;;;;;;4946254;28;20046;-56
2023/06/27 06:26:35;;;;;;;9.48;2.80;;;17.40;99.90;;;;;;4961292;28;20106;-57
2023/06/27 06:29:04;;;;;;;6.43;2.00;;;17.60;99.90;;;;;;4962624;28;20416;-56
2023/06/27 06:31:30;;;;;;;7.55;1.70;;;17.70;99.90;;;;;;4944133;28;20047;-55
2023/06/27 06:33:57;;;;;;;6.43;1.90;;;17.70;99.90;;;;;;4960961;28;20066;-56
2023/06/27 06:36:24;;;;;;;10.35;1.85;;;17.90;99.90;;;;;;4963428;28;20148;-56
2023/06/27 06:38:50;;;;;;;8.55;2.05;;;18.00;99.90;;;;;;4961637;28;20070;-56
2023/06/27 06:41:18;;;;;;;8.23;2.10;;;18.10;99.90;;;;;;4959235;28;20047;-57
2023/06/27 06:43:44;;;;;;;9.43;1.90;;;18.20;99.90;;;;;;4950077;28;20047;-56
2023/06/27 06:46:10;;;;;;;8.82;1.73;;;18.30;99.90;;;;;;4958429;28;20098;-57
2023/06/27 06:48:36;;;;;;;11.95;2.28;;;18.40;99.90;;;;;;4944610;28;20483;-57
2023/06/27 06:51:02;;;;;;;4.93;1.30;;;18.50;99.90;;;;;;4962538;28;20049;-57
2023/06/27 06:53:27;;;;;;;4.85;1.38;;;18.60;99.90;;;;;;4939796;28;20098;-56
2023/06/27 06:55:53;;;;;;;7.70;2.00;;;18.70;99.90;;;;;;4949131;28;20535;-56
2023/06/27 06:58:19;;;;;;;8.55;1.77;;;18.80;99.90;;;;;;4954935;28;20550;-56
2023/06/27 07:00:44;;;;;;;7.05;1.98;;;18.90;99.90;;;;;;4953271;28;20047;-57
2023/06/27 07:03:10;;;;;;;10.25;1.58;;;19.00;99.90;;;;;;4946711;28;20142;-56
2023/06/27 07:05:37;;;;;;;4.70;1.48;;;19.10;99.90;;;;;;4945996;28;20054;-56
2023/06/27 07:08:04;;;;;;;8.35;1.60;;;19.20;99.90;;;;;;4954292;28;20054;-56
2023/06/27 07:10:30;;;;;;;3.78;1.60;;;19.30;99.90;;;;;;4952069;28;20512;-56
2023/06/27 07:12:56;;;;;;;6.97;1.85;;;19.50;99.70;;;;;;4933696;28;20483;-57
2023/06/27 07:15:23;;;;;;;5.68;1.40;;;19.60;99.40;;;;;;4955436;28;20532;-57
2023/06/27 07:17:50;;;;;;;6.80;1.27;;;19.70;99.00;;;;;;4954354;28;20047;-56
2023/06/27 07:20:16;;;;;;;4.95;1.33;;;19.70;98.50;;;;;;4955248;28;20570;-57
2023/06/27 07:22:43;;;;;;;3.95;1.13;;;19.70;98.30;;;;;;4955099;28;20084;-57
2023/06/27 07:25:09;;;;;;;7.05;1.40;;;19.70;98.00;;;;;;4956136;28;20050;-57
2023/06/27 07:27:34;;;;;;;4.22;1.40;;;19.80;97.50;;;;;;4958757;28;20046;-57
2023/06/27 07:30:00;;;;;;;6.45;1.77;;;19.80;97.30;;;;;;4952644;28;20091;-57
2023/06/27 07:32:26;;;;;;;6.95;1.27;;;19.80;97.30;;;;;;4952222;28;20647;-57
2023/06/27 07:34:51;;;;;;;9.25;1.60;;;19.80;97.00;;;;;;4955625;28;20046;-57
2023/06/27 07:37:17;;;;;;;2.33;1.00;;;19.70;96.70;;;;;;4955685;28;20138;-56
2023/06/27 07:39:43;;;;;;;11.93;1.40;;;19.70;96.60;;;;;;4953473;28;20051;-55
2023/06/27 07:42:08;;;;;;;6.53;1.15;;;19.60;96.50;;;;;;4954830;28;20141;-56
2023/06/27 07:44:35;;;;;;;5.75;1.45;;;19.60;96.30;;;;;;4954832;28;20038;-57
2023/06/27 07:47:01;;;;;;;6.20;1.38;;;19.60;96.00;;;;;;4923964;28;20047;-55
2023/06/27 07:49:26;;;;;;;6.78;1.58;;;19.70;95.80;;;;;;4952850;28;20038;-57
2023/06/27 07:51:52;;;;;;;7.32;1.30;;;19.80;95.50;;;;;;4955887;28;20039;-57
2023/06/27 07:54:19;;;;;;;6.05;1.45;;;19.90;95.40;;;;;;4957752;28;20042;-57
2023/06/27 07:56:47;;;;;;;8.38;1.63;;;20.10;95.20;;;;;;4948660;28;20058;-57
2023/06/27 07:59:13;;;;;;;13.25;1.50;;;20.30;94.40;;;;;;4952693;28;20101;-57
2023/06/27 08:01:42;;;;;;;6.93;1.27;;;20.50;93.70;;;;;;4950808;28;20063;-58
2023/06/27 08:04:07;;;;;;;3.85;1.23;;;20.70;93.20;;;;;;4951576;28;20043;-56
2023/06/27 08:06:33;;;;;;;8.20;1.52;;;20.80;92.50;;;;;;4954478;28;20049;-57
2023/06/27 08:08:59;;;;;;;5.03;1.50;;;20.90;91.90;;;;;;4951803;28;20126;-58
2023/06/27 08:11:25;;;;;;;5.03;1.15;;;20.90;91.50;;;;;;4927107;28;20031;-57
2023/06/27 08:13:50;;;;;;;5.90;1.02;;;20.80;90.50;;;;;;4944341;28;20050;-57
2023/06/27 08:16:16;;;;;;;5.68;1.45;;;20.80;90.20;;;;;;4937069;28;20051;-58
2023/06/27 08:18:42;;;;;;;3.92;1.10;;;20.90;89.90;;;;;;4960043;28;20051;-57
2023/06/27 08:21:08;;;;;;;4.97;1.23;;;21.10;90.00;;;;;;4956527;28;20038;-57
2023/06/27 08:23:33;;;;;;;5.18;1.30;;;21.10;89.10;;;;;;4925753;28;20053;-57
2023/06/27 08:25:59;;;;;;;6.03;1.13;;;21.10;89.00;;;;;;4935859;28;20074;-57
2023/06/27 08:28:25;;;;;;;4.60;1.27;;;21.10;88.60;;;;;;4953532;28;20956;-58
2023/06/27 08:30:51;;;;;;;4.95;1.35;;;21.10;88.30;;;;;;4948087;28;20066;-55
2023/06/27 08:33:16;;;;;;;7.55;1.15;;;21.30;88.80;;;;;;4934126;28;20244;-56
2023/06/27 08:35:43;;;;;;;8.32;0.98;;;21.50;89.00;;;;;;4952201;28;20442;-55
2023/06/27 08:38:10;;;;;;;6.00;1.38;;;21.60;86.80;;;;;;4955085;28;20097;-56
2023/06/27 08:40:36;;;;;;;6.68;1.38;;;21.60;85.30;;;;;;4952216;28;20062;-56
2023/06/27 08:43:04;;;;;;;4.90;1.13;;;21.60;84.60;;;;;;4951411;28;20043;-57
2023/06/27 08:45:30;;;;;;;8.07;1.48;;;21.60;84.30;;;;;;4953687;28;20435;-56
2023/06/27 08:47:57;;;;;;;6.35;1.33;;;21.50;85.10;;;;;;4934369;28;20054;-58
2023/06/27 08:50:23;;;;;;;9.13;1.45;;;21.60;85.30;;;;;;4955886;28;20055;-57
2023/06/27 08:52:55;;;;;;;4.53;1.25;;;21.70;85.10;;;;;;4946792;28;21001;-56
2023/06/27 08:55:42;;;;;;;8.50;1.50;;;21.80;84.60;;;;;;4936015;28;20089;-57
2023/06/27 08:58:15;;;;;;;10.30;1.83;;;21.80;83.80;;;;;;4944599;28;20121;-56
2023/06/27 09:00:46;;;;;;;6.07;1.08;;;21.70;83.40;;;;;;4955123;28;20065;-56
2023/06/27 09:03:12;;;;;;;6.45;1.08;;;21.50;82.80;;;;;;4937693;28;20486;-57
2023/06/27 09:05:38;;;;;;;11.18;1.40;;;21.40;81.80;;;;;;4930906;28;20050;-55
2023/06/27 09:08:04;;;;;;;4.15;0.95;;;21.50;81.70;;;;;;4949920;28;20046;-57
2023/06/27 09:10:30;;;;;;;3.38;1.08;;;21.60;81.40;;;;;;4953636;28;20105;-57
2023/06/27 09:12:57;;;;;;;4.55;1.15;;;21.80;80.40;;;;;;4935921;28;20154;-57
2023/06/27 09:15:23;;;;;;;1.90;0.77;;;21.90;79.20;;;;;;4948565;28;20078;-55
2023/06/27 09:17:49;;;;;;;3.20;0.93;;;22.00;78.80;;;;;;4954010;28;20051;-56
2023/06/27 09:20:19;;;;;;;4.60;1.02;;;22.10;77.70;;;;;;4953418;28;20418;-56
2023/06/27 09:22:45;;;;;;;2.33;1.00;;;22.30;77.50;;;;;;4956282;28;20434;-57
2023/06/27 09:25:21;;;;;;;3.45;1.15;;;22.40;77.30;;;;;;4948760;28;20055;-56
2023/06/27 09:27:47;;;;;;;4.00;1.00;;;22.60;76.70;;;;;;4959799;28;20073;-57
2023/06/27 09:30:13;;;;;;;5.72;1.45;;;22.60;75.90;;;;;;4953128;28;20039;-56
2023/06/27 09:32:59;;;;;;;4.47;1.00;;;22.70;75.30;;;;;;4940151;28;20051;-57
2023/06/27 09:35:26;;;;;;;4.50;1.30;;;22.70;75.30;;;;;;4943523;28;20067;-56
2023/06/27 09:37:53;;;;;;;6.53;1.23;;;22.70;74.40;;;;;;4929602;28;20046;-57
2023/06/27 09:40:27;;;;;;;4.22;1.05;;;22.60;73.70;;;;;;4941224;28;20145;-57
2023/06/27 09:42:55;;;;;;;6.88;1.30;;;22.50;73.70;;;;;;4958462;28;20161;-57
2023/06/27 09:45:23;;;;;;;2.55;1.13;;;22.50;74.10;;;;;;4956493;28;20107;-57
2023/06/27 09:47:52;;;;;;;6.57;1.27;;;22.60;73.60;;;;;;4957133;28;20043;-57
2023/06/27 09:50:25;;;;;;;7.50;1.25;;;22.80;73.10;;;;;;4940808;28;20050;-57
2023/06/27 09:52:59;;;;;;;2.45;1.10;;;22.90;73.00;;;;;;4956507;28;20194;-57
2023/06/27 09:55:25;;;;;;;4.85;1.35;;;23.00;71.60;;;;;;4953802;28;20057;-55
2023/06/27 09:57:52;;;;;;;4.65;1.00;;;23.10;71.30;;;;;;4938542;28;20607;-56
2023/06/27 10:00:22;;;;;;;3.58;1.10;;;22.90;71.60;;;;;;4957063;28;22374;-57
2023/06/27 10:02:49;;;;;;;3.92;1.10;;;22.80;72.10;;;;;;4937357;28;20089;-55
2023/06/27 10:05:16;;;;;;;5.88;1.20;;;22.80;72.80;;;;;;4939831;28;20931;-57
2023/06/27 10:07:44;;;;;;;4.63;1.08;;;22.80;72.70;;;;;;4957139;28;20464;-57
2023/06/27 10:10:10;;;;;;;3.95;1.10;;;22.90;72.40;;;;;;4955889;28;20519;-57
2023/06/27 10:12:36;;;;;;;3.95;0.98;;;22.90;72.20;;;;;;4938791;28;20380;-57
2023/06/27 10:15:04;;;;;;;4.65;1.38;;;22.90;72.00;;;;;;4954055;28;20097;-56
2023/06/27 10:17:30;;;;;;;3.95;1.10;;;22.80;71.90;;;;;;4938264;28;20081;-57
2023/06/27 10:19:57;;;;;;;4.40;0.95;;;22.80;72.40;;;;;;4958918;28;20046;-57
2023/06/27 10:22:29;;;;;;;7.90;1.35;;;22.70;72.20;;;;;;4958701;28;20043;-57
2023/06/27 10:25:00;;;;;;;9.55;1.48;;;22.60;72.40;;;;;;4931341;28;20062;-56
2023/06/27 10:27:26;;;;;;;5.07;1.20;;;22.60;72.50;;;;;;4959366;28;20050;-57
2023/06/27 10:29:52;;;;;;;5.13;1.40;;;22.70;72.80;;;;;;4958102;28;20077;-57
2023/06/27 10:32:19;;;;;;;5.35;1.35;;;22.90;73.00;;;;;;4913960;28;20141;-57
2023/06/27 10:34:45;;;;;;;6.95;1.35;;;23.10;72.80;;;;;;4936549;28;20480;-56
2023/06/27 10:37:24;;;;;;;5.03;1.23;;;23.40;72.10;;;;;;4956026;28;20078;-56
2023/06/27 10:39:57;;;;;;;8.98;1.25;;;23.40;70.70;;;;;;4958905;28;20434;-56
2023/06/27 10:42:23;;;;;;;6.60;1.40;;;23.30;70.60;;;;;;4958686;28;20503;-56
2023/06/27 10:45:09;;;;;;;6.18;1.88;;;23.10;71.10;;;;;;4955386;28;20034;-57
2023/06/27 10:47:44;;;;;;;4.78;1.20;;;23.30;71.70;;;;;;4955376;28;20043;-57
2023/06/27 10:50:20;;;;;;;6.75;1.30;;;23.40;70.70;;;;;;4955535;28;20503;-56
2023/06/27 10:53:05;;;;;;;4.78;1.40;;;23.60;70.50;;;;;;4954193;28;20043;-57
2023/06/27 10:55:32;;;;;;;3.70;0.90;;;23.50;69.70;;;;;;4955829;28;20051;-57
2023/06/27 10:58:13;;;;;;;7.25;1.30;;;23.40;69.60;;;;;;4959260;28;20113;-56
2023/06/27 11:00:47;;;;;;;4.65;1.25;;;23.40;70.50;;;;;;4937293;28;20042;-57
2023/06/27 11:03:18;;;;;;;6.97;1.38;;;23.40;70.10;;;;;;4950878;28;20045;-56
2023/06/27 11:05:49;;;;;;;6.30;1.00;;;23.20;69.40;;;;;;4925587;28;20117;-57
2023/06/27 11:08:17;;;;;;;3.90;1.23;;;23.10;69.80;;;;;;4957877;28;20691;-57
2023/06/27 11:11:05;;;;;;;2.70;1.00;;;23.10;69.50;;;;;;4958031;28;20427;-56
2023/06/27 11:13:41;;;;;;;3.75;0.98;;;23.00;69.40;;;;;;4954520;28;20051;-57
2023/06/27 11:16:08;;;;;;;7.35;1.10;;;23.00;69.10;;;;;;4957693;28;20152;-57
2023/06/27 11:18:34;;;;;;;4.05;1.40;;;22.90;69.10;;;;;;4960040;28;20508;-58
2023/06/27 11:21:00;;;;;;;5.05;1.25;;;22.90;69.10;;;;;;4953941;28;20074;-56
2023/06/27 11:23:25;;;;;;;5.35;1.10;;;23.00;68.70;;;;;;4953701;28;20138;-57
2023/06/27 11:25:52;;;;;;;2.78;0.90;;;23.10;68.10;;;;;;4938884;28;20058;-57
2023/06/27 11:28:21;;;;;;;8.02;1.27;;;23.10;69.00;;;;;;4954282;28;20043;-57
2023/06/27 11:30:47;;;;;;;4.35;1.30;;;23.10;68.90;;;;;;4945571;28;20097;-57
2023/06/27 11:33:19;;;;;;;4.93;1.27;;;23.10;69.40;;;;;;4952902;28;20511;-56
2023/06/27 11:35:45;;;;;;;2.55;1.15;;;23.10;69.10;;;;;;4962729;28;20058;-57
2023/06/27 11:38:11;;;;;;;5.43;0.98;;;23.10;68.40;;;;;;4956797;28;20043;-57
2023/06/27 11:40:46;;;;;;;4.88;1.20;;;23.10;68.30;;;;;;4942439;28;20039;-57
2023/06/27 11:43:14;;;;;;;5.22;1.15;;;23.10;68.70;;;;;;4935085;28;20515;-57
2023/06/27 11:45:47;;;;;;;4.25;1.15;;;23.20;69.10;;;;;;4957733;28;20126;-57
2023/06/27 11:48:13;;;;;;;5.03;1.13;;;23.10;68.00;;;;;;4942230;28;20038;-57
2023/06/27 11:51:06;;;;;;;3.88;0.80;;;23.00;67.40;;;;;;4942746;28;20069;-57
2023/06/27 11:53:33;;;;;;;8.02;1.17;;;23.00;67.70;;;;;;4943279;28;20049;-57
2023/06/27 11:55:59;;;;;;;7.18;1.60;;;22.90;67.70;;;;;;4959935;28;20396;-56
2023/06/27 11:58:30;;;;;;;8.80;1.30;;;22.80;68.20;;;;;;4958982;28;20181;-58
2023/06/27 12:00:59;;;;;;;3.42;1.15;;;22.90;69.30;;;;;;4954687;28;20042;-57
2023/06/27 12:03:30;;;;;;;4.03;0.82;;;22.90;69.60;;;;;;4939890;28;20058;-56
2023/06/27 12:05:57;;;;;;;5.07;1.10;;;23.00;68.50;;;;;;4955533;28;20058;-56
2023/06/27 12:08:33;;;;;;;7.90;1.35;;;23.00;67.60;;;;;;4954464;28;20071;-57
2023/06/27 12:11:02;;;;;;;5.20;1.13;;;23.00;67.70;;;;;;4955659;28;20105;-57
2023/06/27 12:13:38;;;;;;;6.43;1.20;;;23.00;66.90;;;;;;4954250;28;20050;-56
2023/06/27 12:16:05;;;;;;;4.85;1.13;;;22.90;66.60;;;;;;4954712;28;20050;-55
2023/06/27 12:18:32;;;;;;;4.82;1.15;;;22.80;67.50;;;;;;4934789;28;20081;-56
2023/06/27 12:20:59;;;;;;;4.22;1.30;;;22.70;68.10;;;;;;4950045;28;20039;-58
2023/06/27 12:23:29;;;;;;;2.83;1.10;;;22.70;68.70;;;;;;4935006;28;20110;-57
2023/06/27 12:25:56;;;;;;;6.57;1.67;;;22.70;68.80;;;;;;4952770;28;20134;-57
2023/06/27 12:28:24;;;;;;;3.17;1.10;;;22.60;68.50;;;;;;4956204;28;20105;-57
2023/06/27 12:30:49;;;;;;;5.50;0.90;;;22.60;68.10;;;;;;4955338;28;20043;-57
2023/06/27 12:33:15;;;;;;;4.85;1.30;;;22.50;68.10;;;;;;4954938;28;20057;-57
2023/06/27 12:35:42;;;;;;;6.88;1.25;;;22.50;68.50;;;;;;4941385;28;20492;-57
2023/06/27 12:38:08;;;;;;;3.50;1.20;;;22.50;68.70;;;;;;4939215;28;20051;-57
2023/06/27 12:40:35;;;;;;;4.50;1.00;;;22.60;68.70;;;;;;4950559;28;20047;-57
2023/06/27 12:43:03;;;;;;;5.18;1.25;;;22.70;68.80;;;;;;4939476;28;20049;-57
2023/06/27 12:45:31;;;;;;;4.07;1.10;;;22.80;68.90;;;;;;4954220;28;20063;-57
2023/06/27 12:47:57;;;;;;;5.13;1.27;;;22.80;68.90;;;;;;4952830;28;20046;-57